createdAt,value
2022-09-03T00:01:38.276Z,0.50
2022-09-03T00:04:22.359Z,0.40
2022-09-03T00:07:01.986Z,0.37
2022-09-03T00:09:34.177Z,0.60
2022-09-03T00:12:33.274Z,0.43
2022-09-03T00:15:07.731Z,0.50
2022-09-03T00:18:09.204Z,0.40
2022-09-03T00:20:43.976Z,0.73
2022-09-03T00:23:18.397Z,0.40
2022-09-03T00:25:50.690Z,0.30
2022-09-03T00:28:25.876Z,0.60
2022-09-03T00:31:02.351Z,0.40
2022-09-03T00:33:32.996Z,0.60
2022-09-03T00:36:02.237Z,0.60
2022-09-03T00:38:29.977Z,0.40
2022-09-03T00:41:06.991Z,0.53
2022-09-03T00:43:46.241Z,0.60
2022-09-03T00:46:20.006Z,0.50
2022-09-03T00:49:24.969Z,0.70
2022-09-03T00:51:56.372Z,0.50
2022-09-03T00:54:35.915Z,0.47
2022-09-03T00:57:10.454Z,0.50
2022-09-03T00:59:49.277Z,0.40
2022-09-03T01:02:34.085Z,0.67
2022-09-03T01:05:15.512Z,0.50
2022-09-03T01:07:53.125Z,0.37
2022-09-03T01:10:28.373Z,0.30
2022-09-03T01:13:16.174Z,0.40
2022-09-03T01:16:02.544Z,0.73
2022-09-03T01:18:56.839Z,0.63
2022-09-03T01:21:36.031Z,0.90
2022-09-03T01:24:31.714Z,0.80
2022-09-03T01:27:10.954Z,0.40
2022-09-03T01:29:53.852Z,0.50
2022-09-03T01:32:29.127Z,0.37
2022-09-03T01:35:04.604Z,0.83
2022-09-03T01:38:06.387Z,0.43
2022-09-03T01:40:44.836Z,0.40
2022-09-03T01:43:15.160Z,0.77
2022-09-03T01:45:55.201Z,0.40
2022-09-03T01:48:30.805Z,0.30
2022-09-03T01:51:24.653Z,0.40
2022-09-03T01:54:28.739Z,0.40
2022-09-03T01:57:34.622Z,0.50
2022-09-03T02:00:13.200Z,0.60
2022-09-03T02:02:48.909Z,0.70
2022-09-03T02:05:17.970Z,0.50
2022-09-03T02:07:52.839Z,0.77
2022-09-03T02:10:23.989Z,0.40
2022-09-03T02:12:56.658Z,0.70
2022-09-03T02:15:28.048Z,0.50
2022-09-03T02:17:57.383Z,0.43
2022-09-03T02:20:27.503Z,1.53
2022-09-03T02:22:54.541Z,0.60
2022-09-03T02:25:23.241Z,0.60
2022-09-03T02:27:50.891Z,0.50
2022-09-03T02:30:18.580Z,0.50
2022-09-03T02:32:45.053Z,0.50
2022-09-03T02:35:12.781Z,0.40
2022-09-03T02:37:40.111Z,0.57
2022-09-03T02:40:10.197Z,0.40
2022-09-03T02:42:37.085Z,1.00
2022-09-03T02:45:06.860Z,0.57
2022-09-03T02:47:35.861Z,0.60
2022-09-03T02:50:02.285Z,0.50
2022-09-03T02:52:28.700Z,0.47
2022-09-03T02:54:55.113Z,0.43
2022-09-03T02:57:27.663Z,0.40
2022-09-03T02:59:54.819Z,0.43
2022-09-03T03:02:21.339Z,0.50
2022-09-03T03:04:47.913Z,0.33
2022-09-03T03:07:14.365Z,0.73
2022-09-03T03:09:40.749Z,0.50
2022-09-03T03:12:08.161Z,0.70
2022-09-03T03:14:34.583Z,0.50
2022-09-03T03:17:01.140Z,0.33
2022-09-03T03:19:27.617Z,0.67
2022-09-03T03:21:54.046Z,0.30
2022-09-03T03:24:20.445Z,0.50
2022-09-03T03:26:46.851Z,0.43
2022-09-03T03:29:17.235Z,0.63
2022-09-03T03:31:43.932Z,0.40
2022-09-03T03:34:10.330Z,0.70
2022-09-03T03:36:36.910Z,0.80
2022-09-03T03:39:03.911Z,0.50
2022-09-03T03:41:33.138Z,0.50
2022-09-03T03:44:04.877Z,0.50
2022-09-03T03:46:36.387Z,0.40
2022-09-03T03:49:03.012Z,1.13
2022-09-03T03:51:30.423Z,0.40
2022-09-03T03:54:01.028Z,0.50
2022-09-03T03:56:29.632Z,0.60
2022-09-03T03:58:56.210Z,0.40
2022-09-03T04:01:25.545Z,0.50
2022-09-03T04:03:54.724Z,0.30
2022-09-03T04:06:23.267Z,0.60
2022-09-03T04:08:50.314Z,0.63
2022-09-03T04:11:22.141Z,0.37
2022-09-03T04:13:50.077Z,0.60
2022-09-03T04:16:25.396Z,0.40
2022-09-03T04:18:54.391Z,0.80
2022-09-03T04:21:23.529Z,0.40
2022-09-03T04:23:51.151Z,0.80
2022-09-03T04:26:21.398Z,0.40
2022-09-03T04:28:48.376Z,0.43
2022-09-03T04:31:19.237Z,0.30
2022-09-03T04:33:46.384Z,0.47
2022-09-03T04:36:14.048Z,0.60
2022-09-03T04:38:42.670Z,0.60
2022-09-03T04:41:12.034Z,0.50
2022-09-03T04:43:38.693Z,0.70
2022-09-03T04:46:10.863Z,0.40
2022-09-03T04:48:43.932Z,0.50
2022-09-03T04:51:15.567Z,0.50
2022-09-03T04:53:44.035Z,1.10
2022-09-03T04:56:19.221Z,0.50
2022-09-03T04:58:46.790Z,0.40
2022-09-03T05:01:20.845Z,0.60
2022-09-03T05:03:48.307Z,0.60
2022-09-03T05:06:17.083Z,0.30
2022-09-03T05:08:48.187Z,0.60
2022-09-03T05:11:16.192Z,0.57
2022-09-03T05:13:43.109Z,1.17
2022-09-03T05:16:13.196Z,0.60
2022-09-03T05:18:39.856Z,0.60
2022-09-03T05:21:11.001Z,0.60
2022-09-03T05:23:40.163Z,0.60
2022-09-03T05:26:10.995Z,0.40
2022-09-03T05:28:39.533Z,0.70
2022-09-03T05:31:14.457Z,0.40
2022-09-03T05:33:46.172Z,0.57
2022-09-03T05:36:17.765Z,0.50
2022-09-03T05:38:44.649Z,0.70
2022-09-03T05:41:13.213Z,0.77
2022-09-03T05:43:40.213Z,0.83
2022-09-03T05:46:16.915Z,0.63
2022-09-03T05:48:43.393Z,0.80
2022-09-03T05:51:19.110Z,1.53
2022-09-03T05:53:47.940Z,0.97
2022-09-03T05:56:20.306Z,0.60
2022-09-03T05:58:49.470Z,0.90
2022-09-03T06:01:21.792Z,0.80
2022-09-03T06:03:56.678Z,0.70
2022-09-03T06:06:25.475Z,1.53
2022-09-03T06:08:53.066Z,1.57
2022-09-03T06:11:19.662Z,0.60
2022-09-03T06:13:47.427Z,0.73
2022-09-03T06:16:13.909Z,1.47
2022-09-03T06:18:40.413Z,0.60
2022-09-03T06:21:07.724Z,1.30
2022-09-03T06:23:36.383Z,0.80
2022-09-03T06:26:08.223Z,1.20
2022-09-03T06:28:36.393Z,0.57
2022-09-03T06:31:05.464Z,0.97
2022-09-03T06:33:34.632Z,0.50
2022-09-03T06:36:04.560Z,2.13
2022-09-03T06:38:35.888Z,0.80
2022-09-03T06:41:05.949Z,1.00
2022-09-03T06:43:35.670Z,0.70
2022-09-03T06:46:05.270Z,0.70
2022-09-03T06:48:34.039Z,0.70
2022-09-03T06:51:15.299Z,1.00
2022-09-03T06:53:44.670Z,2.00
2022-09-03T06:56:19.180Z,0.50
2022-09-03T06:58:47.386Z,0.57
2022-09-03T07:01:19.635Z,1.03
2022-09-03T07:03:48.488Z,1.00
2022-09-03T07:06:17.744Z,1.17
2022-09-03T07:08:45.748Z,0.67
2022-09-03T07:11:14.586Z,0.80
2022-09-03T07:13:47.697Z,0.93
2022-09-03T07:16:17.251Z,1.30
2022-09-03T07:18:44.596Z,0.63
2022-09-03T07:21:19.442Z,0.57
2022-09-03T07:23:46.848Z,0.73
2022-09-03T07:26:19.887Z,1.30
2022-09-03T07:28:46.893Z,1.50
2022-09-03T07:31:16.032Z,0.70
2022-09-03T07:33:42.906Z,0.60
2022-09-03T07:36:15.312Z,0.70
2022-09-03T07:38:44.927Z,0.90
2022-09-03T07:41:13.076Z,1.20
2022-09-03T07:43:48.277Z,1.17
2022-09-03T07:46:23.104Z,0.80
2022-09-03T07:48:52.260Z,0.50
2022-09-03T07:51:20.940Z,0.70
2022-09-03T07:53:48.735Z,0.60
2022-09-03T07:56:15.829Z,1.10
2022-09-03T07:58:42.457Z,0.97
2022-09-03T08:01:14.043Z,1.00
2022-09-03T08:03:48.165Z,0.60
2022-09-03T08:06:16.689Z,0.90
2022-09-03T08:08:45.534Z,1.30
2022-09-03T08:11:17.363Z,0.83
2022-09-03T08:13:54.789Z,0.93
2022-09-03T08:16:21.323Z,0.60
2022-09-03T08:18:50.276Z,0.70
2022-09-03T08:21:20.025Z,1.10
2022-09-03T08:23:48.701Z,1.10
2022-09-03T08:26:17.091Z,0.50
2022-09-03T08:28:44.648Z,0.93
2022-09-03T08:31:16.793Z,0.87
2022-09-03T08:33:49.032Z,0.53
2022-09-03T08:36:18.082Z,0.77
2022-09-03T08:38:46.296Z,1.17
2022-09-03T08:41:16.342Z,0.93
2022-09-03T08:43:48.648Z,0.80
2022-09-03T08:46:16.554Z,1.17
2022-09-03T08:48:42.983Z,1.27
2022-09-03T08:51:12.466Z,1.10
2022-09-03T08:53:48.407Z,0.80
2022-09-03T08:56:29.218Z,0.80
2022-09-03T08:58:56.247Z,1.43
2022-09-03T09:01:35.652Z,1.73
2022-09-03T09:04:09.111Z,0.93
2022-09-03T09:06:42.096Z,1.10
2022-09-03T09:09:38.027Z,1.30
2022-09-03T09:12:20.377Z,1.67
2022-09-03T09:14:56.345Z,1.87
2022-09-03T09:17:38.369Z,1.03
2022-09-03T09:20:16.595Z,1.13
2022-09-03T09:23:19.861Z,0.70
2022-09-03T09:25:50.070Z,0.90
2022-09-03T09:28:19.907Z,0.80
2022-09-03T09:30:49.112Z,1.63
2022-09-03T09:33:17.138Z,1.90
2022-09-03T09:35:44.585Z,1.60
2022-09-03T09:38:11.797Z,3.17
2022-09-03T09:40:45.234Z,1.67
2022-09-03T09:43:17.485Z,1.67
2022-09-03T09:45:46.200Z,1.53
2022-09-03T09:48:24.008Z,1.80
2022-09-03T09:50:50.823Z,1.30
2022-09-03T09:53:21.448Z,1.53
2022-09-03T09:55:50.967Z,1.47
2022-09-03T09:58:20.094Z,1.00
2022-09-03T10:01:21.979Z,1.47
2022-09-03T10:03:55.085Z,1.43
2022-09-03T10:06:45.779Z,1.20
2022-09-03T10:09:15.933Z,2.10
2022-09-03T10:11:57.897Z,1.30
2022-09-03T10:14:35.042Z,2.40
2022-09-03T10:17:11.197Z,1.90
2022-09-03T10:20:10.146Z,1.87
2022-09-03T10:22:56.237Z,2.47
2022-09-03T10:25:30.434Z,1.60
2022-09-03T10:28:00.670Z,1.67
2022-09-03T10:30:31.565Z,2.27
2022-09-03T10:33:15.740Z,2.07
2022-09-03T10:35:51.816Z,1.90
2022-09-03T10:38:37.920Z,2.43
2022-09-03T10:41:20.315Z,2.43
2022-09-03T10:44:01.986Z,1.47
2022-09-03T10:46:37.065Z,2.60
2022-09-03T10:49:49.536Z,1.30
2022-09-03T10:52:36.925Z,1.50
2022-09-03T10:55:23.121Z,1.70
2022-09-03T10:58:12.735Z,2.23
2022-09-03T11:00:46.963Z,1.70
2022-09-03T11:03:33.958Z,1.57
2022-09-03T11:06:13.417Z,2.13
2022-09-03T11:08:48.432Z,2.73
2022-09-03T11:11:26.576Z,1.90
2022-09-03T11:14:02.302Z,1.70
2022-09-03T11:16:33.066Z,2.37
2022-09-03T11:19:11.278Z,1.87
2022-09-03T11:21:41.868Z,2.00
2022-09-03T11:24:23.559Z,1.80
2022-09-03T11:27:02.402Z,2.30
2022-09-03T11:29:42.433Z,2.20
2022-09-03T11:32:24.175Z,2.20
2022-09-03T11:34:54.437Z,2.00
2022-09-03T11:37:30.362Z,1.70
2022-09-03T11:40:05.108Z,1.50
2022-09-03T11:42:36.824Z,2.47
2022-09-03T11:45:21.696Z,2.40
2022-09-03T11:47:49.415Z,2.67
2022-09-03T11:50:21.051Z,2.87
2022-09-03T11:52:51.924Z,3.67
2022-09-03T11:55:43.276Z,3.57
2022-09-03T11:58:25.148Z,1.73
2022-09-03T12:00:54.014Z,2.50
2022-09-03T12:03:28.451Z,2.20
2022-09-03T12:06:19.875Z,2.50
2022-09-03T12:09:08.177Z,2.00
2022-09-03T12:12:06.575Z,2.10
2022-09-03T12:14:36.019Z,2.30
2022-09-03T12:17:26.740Z,2.63
2022-09-03T12:19:58.497Z,2.10
2022-09-03T12:22:31.288Z,2.70
2022-09-03T12:25:08.892Z,1.77
2022-09-03T12:27:40.130Z,2.17
2022-09-03T12:30:16.764Z,2.70
2022-09-03T12:32:43.497Z,2.90
2022-09-03T12:38:08.457Z,1.33
2022-09-03T12:41:26.650Z,1.50
2022-09-03T12:43:38.450Z,2.50
2022-09-03T12:46:13.543Z,2.70
2022-09-03T12:49:29.954Z,2.27
2022-09-03T12:51:52.147Z,2.67
2022-09-03T12:54:21.963Z,1.73
2022-09-03T12:56:57.615Z,1.73
2022-09-03T12:59:27.377Z,2.30
2022-09-03T13:01:58.695Z,1.83
2022-09-03T13:04:32.444Z,2.17
2022-09-03T13:07:04.015Z,2.13
2022-09-03T13:09:33.921Z,1.23
2022-09-03T13:12:04.744Z,1.60
2022-09-03T13:14:43.835Z,1.43
2022-09-03T13:17:55.324Z,0.77
2022-09-03T13:20:33.902Z,1.53
2022-09-03T13:23:19.230Z,1.63
2022-09-03T13:25:48.937Z,0.97
2022-09-03T13:28:34.272Z,1.40
2022-09-03T13:31:08.998Z,1.00
2022-09-03T13:33:43.507Z,1.20
2022-09-03T13:36:17.837Z,1.60
2022-09-03T13:38:54.170Z,0.77
2022-09-03T13:41:39.019Z,1.33
2022-09-03T13:44:20.906Z,1.10
2022-09-03T13:47:01.470Z,1.27
2022-09-03T13:49:57.332Z,0.90
2022-09-03T13:52:46.676Z,1.37
2022-09-03T13:55:23.316Z,1.33
2022-09-03T13:58:01.045Z,0.87
2022-09-03T14:00:44.211Z,0.97
2022-09-03T14:03:30.952Z,0.80
2022-09-03T14:06:05.844Z,0.73
2022-09-03T14:08:53.362Z,0.83
2022-09-03T14:11:31.432Z,0.90
2022-09-03T14:14:06.608Z,1.27
2022-09-03T14:16:40.313Z,0.53
2022-09-03T14:19:37.685Z,0.83
2022-09-03T14:22:26.994Z,1.23
2022-09-03T14:24:57.885Z,1.23
2022-09-03T14:27:26.775Z,0.70
2022-09-03T14:30:15.175Z,1.83
2022-09-03T14:32:53.617Z,0.70
2022-09-03T14:35:35.286Z,0.90
2022-09-03T14:38:04.755Z,1.10
2022-09-03T14:40:50.022Z,1.00
2022-09-03T14:43:33.269Z,1.23
2022-09-03T14:46:05.053Z,0.90
2022-09-03T14:49:00.159Z,1.10
2022-09-03T14:51:45.154Z,1.10
2022-09-03T14:54:41.593Z,0.80
2022-09-03T14:57:36.249Z,0.50
2022-09-03T15:00:18.382Z,1.13
2022-09-03T15:03:05.211Z,1.07
2022-09-03T15:05:40.878Z,1.17
2022-09-03T15:08:28.670Z,0.80
2022-09-03T15:11:04.557Z,0.87
2022-09-03T15:13:42.833Z,0.87
2022-09-03T15:16:33.005Z,0.60
2022-09-03T15:19:09.787Z,1.40
2022-09-03T15:22:03.665Z,0.93
2022-09-03T15:24:54.011Z,0.83
2022-09-03T15:27:58.146Z,0.60
2022-09-03T15:30:35.719Z,0.60
2022-09-03T15:33:07.912Z,0.80
2022-09-03T15:35:55.674Z,1.03
2022-09-03T15:38:41.396Z,0.70
2022-09-03T15:41:31.157Z,0.40
2022-09-03T15:44:01.222Z,0.30
2022-09-03T15:46:37.609Z,0.73
2022-09-03T15:49:21.618Z,0.50
2022-09-03T15:52:03.470Z,0.40
2022-09-03T15:54:43.376Z,0.37
2022-09-03T15:57:20.086Z,0.30
2022-09-03T16:00:07.823Z,0.30
2022-09-03T16:02:42.920Z,0.30
2022-09-03T16:05:25.353Z,0.70
2022-09-03T16:07:56.211Z,0.30
2022-09-03T16:10:36.485Z,0.40
2022-09-03T16:13:14.748Z,0.30
2022-09-03T16:15:57.661Z,0.20
2022-09-03T16:19:10.832Z,0.50
2022-09-03T16:21:44.314Z,0.53
2022-09-03T16:24:42.915Z,0.43
2022-09-03T16:27:54.256Z,0.87
2022-09-03T16:30:46.791Z,0.40
2022-09-03T16:33:32.143Z,0.50
2022-09-03T16:36:43.731Z,0.70
2022-09-03T16:39:42.484Z,0.30
2022-09-03T16:42:53.998Z,0.40
2022-09-03T16:45:30.232Z,0.50
2022-09-03T16:48:20.514Z,0.43
2022-09-03T16:50:51.877Z,0.40
2022-09-03T16:53:45.825Z,0.50
2022-09-03T16:56:37.112Z,1.30
2022-09-03T16:59:25.162Z,0.50
2022-09-03T17:01:55.499Z,0.43
2022-09-03T17:04:42.323Z,0.40
2022-09-03T17:07:22.448Z,0.70
2022-09-03T17:10:06.786Z,0.47
2022-09-03T17:12:43.301Z,0.30
2022-09-03T17:15:25.873Z,0.60
2022-09-03T17:18:07.249Z,0.60
2022-09-03T17:20:33.593Z,0.40
2022-09-03T17:23:12.155Z,0.50
2022-09-03T17:25:54.179Z,0.43
2022-09-03T17:28:30.219Z,0.50
2022-09-03T17:31:06.691Z,0.30
2022-09-03T17:34:02.616Z,0.30
2022-09-03T17:36:31.621Z,0.50
2022-09-03T17:39:17.024Z,0.27
2022-09-03T17:41:49.807Z,0.30
2022-09-03T17:44:37.233Z,0.40
2022-09-03T17:47:24.810Z,0.50
2022-09-03T17:50:18.325Z,0.73
2022-09-03T17:52:49.492Z,0.60
2022-09-03T17:55:22.080Z,0.40
2022-09-03T17:57:54.252Z,0.80
2022-09-03T18:00:30.707Z,1.33
2022-09-03T18:03:45.139Z,0.47
2022-09-03T18:06:24.809Z,0.50
2022-09-03T18:09:00.215Z,0.60
2022-09-03T18:11:49.728Z,0.93
2022-09-03T18:15:11.852Z,0.83
2022-09-03T18:17:45.642Z,0.50
2022-09-03T18:20:33.151Z,0.53
2022-09-03T18:23:31.001Z,0.70
2022-09-03T18:26:24.875Z,0.30
2022-09-03T18:29:19.689Z,0.60
2022-09-03T18:32:04.255Z,0.37
2022-09-03T18:34:54.172Z,0.27
2022-09-03T18:37:44.926Z,0.37
2022-09-03T18:40:41.397Z,0.50
2022-09-03T18:43:29.799Z,0.30
2022-09-03T18:49:50.724Z,0.40
2022-09-03T18:52:53.765Z,0.30
2022-09-03T18:55:59.911Z,0.50
2022-09-03T18:59:20.795Z,0.30
2022-09-03T19:02:06.259Z,0.40
2022-09-03T19:04:57.486Z,0.40
2022-09-03T19:08:06.713Z,0.40
2022-09-03T19:11:14.027Z,0.40
2022-09-03T19:13:59.759Z,0.30
2022-09-03T19:16:59.973Z,0.50
2022-09-03T19:20:20.763Z,0.40
2022-09-03T19:23:05.517Z,0.30
2022-09-03T19:25:50.358Z,0.40
2022-09-03T19:28:41.202Z,0.97
2022-09-03T19:32:01.727Z,0.47
2022-09-03T19:35:24.393Z,0.50
2022-09-03T19:38:30.458Z,0.33
2022-09-03T19:41:23.637Z,0.50
2022-09-03T19:44:37.701Z,0.70
2022-09-03T19:47:26.080Z,0.40
2022-09-03T19:50:16.933Z,0.40
2022-09-03T19:53:41.870Z,0.93
2022-09-03T19:56:37.717Z,0.70
2022-09-03T19:59:29.235Z,0.30
2022-09-03T20:02:14.344Z,0.50
2022-09-03T20:05:11.978Z,0.30
2022-09-03T20:07:57.528Z,0.43
2022-09-03T20:10:25.434Z,0.50
2022-09-03T20:13:15.133Z,0.60
2022-09-03T20:15:59.941Z,0.43
2022-09-03T20:18:52.896Z,0.40
2022-09-03T20:21:48.464Z,0.30
2022-09-03T20:24:31.316Z,0.37
2022-09-03T20:27:12.640Z,0.50
2022-09-03T20:30:16.651Z,0.50
2022-09-03T20:32:57.935Z,0.30
2022-09-03T20:35:37.788Z,0.80
2022-09-03T20:38:43.082Z,0.40
2022-09-03T20:41:24.439Z,0.43
2022-09-03T20:44:12.146Z,0.47
2022-09-03T20:47:14.732Z,0.60
2022-09-03T20:49:57.174Z,0.60
2022-09-03T20:52:46.721Z,1.17
2022-09-03T20:55:21.438Z,0.60
2022-09-03T20:58:08.049Z,0.40
2022-09-03T21:01:14.080Z,0.67
2022-09-03T21:03:44.508Z,0.60
2022-09-03T21:06:29.490Z,0.80
2022-09-03T21:09:14.278Z,0.30
2022-09-03T21:12:08.033Z,0.47
2022-09-03T21:14:58.576Z,0.50
2022-09-03T21:17:43.903Z,0.50
2022-09-03T21:20:24.698Z,0.40
2022-09-03T21:23:09.530Z,0.60
2022-09-03T21:25:54.190Z,0.40
2022-09-03T21:28:41.445Z,0.77
2022-09-03T21:31:17.109Z,1.47
2022-09-03T21:33:50.017Z,0.90
2022-09-03T21:36:25.513Z,0.60
2022-09-03T21:38:59.653Z,0.50
2022-09-03T21:41:42.909Z,0.70
2022-09-03T21:44:21.743Z,0.60
2022-09-03T21:46:58.728Z,0.30
2022-09-03T21:49:43.145Z,0.40
2022-09-03T21:52:17.145Z,0.73
2022-09-03T21:54:43.548Z,0.40
2022-09-03T21:57:28.844Z,0.40
2022-09-03T22:00:17.728Z,0.80
2022-09-03T22:02:46.135Z,0.67
2022-09-03T22:05:14.039Z,0.40
2022-09-03T22:08:00.750Z,0.77
2022-09-03T22:11:06.112Z,0.70
2022-09-03T22:13:51.055Z,0.73
2022-09-03T22:16:25.886Z,1.30
2022-09-03T22:18:54.510Z,0.70
2022-09-03T22:21:57.153Z,1.00
2022-09-03T22:24:33.287Z,0.57
2022-09-03T22:27:18.264Z,0.50
2022-09-03T22:30:07.572Z,0.83
2022-09-03T22:32:40.467Z,0.77
2022-09-03T22:35:28.909Z,0.70
2022-09-03T22:38:23.390Z,0.60
2022-09-03T22:41:05.909Z,0.50
2022-09-03T22:44:01.517Z,0.90
2022-09-03T22:46:39.757Z,0.90
2022-09-03T22:49:09.059Z,1.47
2022-09-03T22:52:08.823Z,1.20
2022-09-03T22:54:53.991Z,0.60
2022-09-03T22:57:24.003Z,0.57
2022-09-03T23:00:10.963Z,0.80
2022-09-03T23:02:38.376Z,1.07
2022-09-03T23:05:24.673Z,0.80
2022-09-03T23:08:09.749Z,1.17
2022-09-03T23:10:54.112Z,0.70
2022-09-03T23:13:32.873Z,0.90
2022-09-03T23:16:13.091Z,1.33
2022-09-03T23:18:44.415Z,1.13
2022-09-03T23:21:22.066Z,0.73
2022-09-03T23:24:03.600Z,0.80
2022-09-03T23:26:34.816Z,1.20
2022-09-03T23:29:13.405Z,1.20
2022-09-03T23:31:39.855Z,0.70
2022-09-03T23:34:09.030Z,1.10
2022-09-03T23:37:05.784Z,1.00
2022-09-03T23:39:49.873Z,0.93
2022-09-03T23:42:25.268Z,2.00
2022-09-03T23:45:08.532Z,1.27
2022-09-03T23:48:05.575Z,2.30
2022-09-03T23:50:44.637Z,1.27
2022-09-03T23:53:32.789Z,2.20
2022-09-03T23:56:30.510Z,2.10
2022-09-03T23:59:12.420Z,1.17
